createdAt,value
2023-08-06T00:00:46.453Z,22.60
2023-08-06T00:03:14.307Z,22.51
2023-08-06T00:05:43.073Z,22.45
2023-08-06T00:08:10.615Z,22.38
2023-08-06T00:10:37.985Z,22.35
2023-08-06T00:13:06.770Z,22.31
2023-08-06T00:15:34.225Z,22.30
2023-08-06T00:18:01.615Z,22.31
2023-08-06T00:20:29.272Z,22.31
2023-08-06T00:25:38.099Z,22.35
2023-08-06T00:28:06.848Z,22.35
2023-08-06T00:30:34.233Z,22.33
2023-08-06T00:33:01.908Z,22.31
2023-08-06T00:35:29.169Z,22.25
2023-08-06T00:37:57.004Z,22.20
2023-08-06T00:40:24.388Z,22.17
2023-08-06T00:42:51.959Z,22.15
2023-08-06T00:45:20.923Z,22.15
2023-08-06T00:47:49.262Z,22.16
2023-08-06T00:50:17.720Z,22.09
2023-08-06T00:52:45.182Z,22.08
2023-08-06T00:55:12.441Z,22.05
2023-08-06T00:57:40.335Z,22.03
2023-08-06T01:00:10.255Z,22.01
2023-08-06T01:02:39.424Z,22.02
2023-08-06T01:05:07.250Z,22.01
2023-08-06T01:08:00.172Z,21.96
2023-08-06T01:10:41.237Z,22.00
2023-08-06T01:13:18.109Z,21.97
2023-08-06T01:15:50.412Z,21.99
2023-08-06T01:18:19.502Z,21.98
2023-08-06T01:20:48.694Z,21.98
2023-08-06T01:23:20.469Z,21.96
2023-08-06T01:25:55.894Z,21.94
2023-08-06T01:28:31.191Z,21.92
2023-08-06T01:31:03.129Z,21.91
2023-08-06T01:33:35.945Z,21.85
2023-08-06T01:36:06.646Z,21.85
2023-08-06T01:38:34.052Z,21.86
2023-08-06T01:41:01.588Z,21.84
2023-08-06T01:43:29.048Z,21.86
2023-08-06T01:45:56.554Z,21.88
2023-08-06T01:48:25.694Z,21.90
2023-08-06T01:50:52.950Z,21.90
2023-08-06T01:53:21.796Z,21.92
2023-08-06T01:55:49.921Z,21.91
2023-08-06T01:58:17.570Z,21.87
2023-08-06T02:00:45.302Z,21.86
2023-08-06T02:03:12.577Z,21.82
2023-08-06T02:05:39.887Z,21.80
2023-08-06T02:08:08.507Z,21.79
2023-08-06T02:10:37.117Z,21.80
2023-08-06T02:13:04.441Z,21.79
2023-08-06T02:15:31.853Z,21.79
2023-08-06T02:17:59.968Z,21.77
2023-08-06T02:20:57.653Z,21.77
2023-08-06T02:23:25.846Z,21.74
2023-08-06T02:26:00.613Z,21.72
2023-08-06T02:28:29.387Z,21.68
2023-08-06T02:30:56.928Z,21.64
2023-08-06T02:33:24.648Z,21.71
2023-08-06T02:35:52.223Z,21.73
2023-08-06T02:38:19.587Z,21.73
2023-08-06T02:40:47.470Z,21.78
2023-08-06T02:43:16.384Z,21.79
2023-08-06T02:45:44.600Z,21.79
2023-08-06T02:48:11.954Z,21.81
2023-08-06T02:50:40.467Z,21.85
2023-08-06T02:53:08.291Z,21.90
2023-08-06T02:55:36.368Z,21.91
2023-08-06T02:58:08.264Z,21.95
2023-08-06T03:00:41.645Z,21.97
2023-08-06T03:03:10.019Z,21.98
2023-08-06T03:05:53.132Z,22.03
2023-08-06T03:08:26.038Z,22.06
2023-08-06T03:10:53.882Z,22.14
2023-08-06T03:13:21.798Z,22.13
2023-08-06T03:15:57.804Z,22.13
2023-08-06T03:18:27.387Z,22.11
2023-08-06T03:20:57.022Z,22.06
2023-08-06T03:23:26.040Z,22.02
2023-08-06T03:25:53.541Z,21.98
2023-08-06T03:28:21.203Z,21.98
2023-08-06T03:30:48.459Z,21.98
2023-08-06T03:33:17.182Z,21.98
2023-08-06T03:35:46.162Z,22.06
2023-08-06T03:38:13.859Z,22.11
2023-08-06T03:40:41.074Z,22.15
2023-08-06T03:43:08.359Z,22.17
2023-08-06T03:45:35.739Z,22.24
2023-08-06T03:48:03.777Z,22.29
2023-08-06T03:50:32.764Z,22.32
2023-08-06T03:53:00.031Z,22.42
2023-08-06T03:55:29.399Z,22.48
2023-08-06T03:57:56.664Z,22.54
2023-08-06T04:00:24.067Z,22.62
2023-08-06T04:02:54.437Z,22.71
2023-08-06T04:05:22.553Z,22.78
2023-08-06T04:07:51.365Z,22.87
2023-08-06T04:10:18.693Z,22.98
2023-08-06T04:12:47.664Z,23.11
2023-08-06T04:15:14.955Z,23.17
2023-08-06T04:17:42.396Z,23.26
2023-08-06T04:20:10.367Z,23.38
2023-08-06T04:22:38.686Z,23.44
2023-08-06T04:25:08.328Z,23.51
2023-08-06T04:27:35.795Z,23.61
2023-08-06T04:30:03.151Z,23.64
2023-08-06T04:32:31.990Z,23.83
2023-08-06T04:34:59.588Z,23.93
2023-08-06T04:37:27.744Z,24.08
2023-08-06T04:39:55.210Z,24.19
2023-08-06T04:42:23.941Z,24.26
2023-08-06T04:44:51.533Z,24.34
2023-08-06T04:47:19.616Z,24.39
2023-08-06T04:49:46.942Z,24.46
2023-08-06T04:52:14.132Z,24.58
2023-08-06T04:54:41.511Z,24.71
2023-08-06T04:57:08.723Z,24.81
2023-08-06T04:59:37.308Z,24.91
2023-08-06T05:02:05.122Z,25.05
2023-08-06T05:04:32.437Z,25.18
2023-08-06T05:06:59.628Z,25.28
2023-08-06T05:09:26.900Z,25.36
2023-08-06T05:11:54.354Z,25.48
2023-08-06T05:14:21.915Z,25.58
2023-08-06T05:16:50.519Z,25.66
2023-08-06T05:19:18.120Z,25.73
2023-08-06T05:21:45.417Z,25.81
2023-08-06T05:24:13.399Z,25.92
2023-08-06T05:26:40.674Z,26.01
2023-08-06T05:29:08.003Z,26.08
2023-08-06T05:31:35.267Z,26.13
2023-08-06T05:34:04.286Z,26.19
2023-08-06T05:36:31.628Z,26.29
2023-08-06T05:38:58.840Z,26.39
2023-08-06T05:41:26.366Z,26.52
2023-08-06T05:43:53.714Z,26.61
2023-08-06T05:46:21.103Z,26.70
2023-08-06T05:48:48.502Z,26.76
2023-08-06T05:51:18.018Z,26.83
2023-08-06T05:53:47.058Z,26.91
2023-08-06T05:56:14.513Z,26.96
2023-08-06T05:58:42.158Z,27.00
2023-08-06T06:01:09.434Z,27.05
2023-08-06T06:03:36.961Z,27.14
2023-08-06T06:06:04.715Z,27.19
2023-08-06T06:08:35.083Z,27.28
2023-08-06T06:11:02.572Z,27.39
2023-08-06T06:13:29.910Z,27.51
2023-08-06T06:15:57.380Z,27.76
2023-08-06T06:18:24.820Z,28.09
2023-08-06T06:20:52.008Z,28.39
2023-08-06T06:23:19.407Z,28.67
2023-08-06T06:25:50.890Z,28.95
2023-08-06T06:28:18.290Z,29.19
2023-08-06T06:30:45.948Z,29.45
2023-08-06T06:33:13.163Z,29.68
2023-08-06T06:35:40.714Z,29.81
2023-08-06T06:38:07.959Z,29.97
2023-08-06T06:40:35.421Z,30.21
2023-08-06T06:43:04.188Z,30.42
2023-08-06T06:45:31.411Z,30.62
2023-08-06T06:47:58.860Z,30.76
2023-08-06T06:50:27.578Z,30.86
2023-08-06T06:52:54.938Z,30.74
2023-08-06T06:55:22.277Z,30.85
2023-08-06T06:57:49.542Z,30.93
2023-08-06T07:00:18.398Z,30.96
2023-08-06T07:02:45.799Z,31.12
2023-08-06T07:05:13.159Z,31.22
2023-08-06T07:07:40.388Z,31.18
2023-08-06T07:10:08.615Z,31.07
2023-08-06T07:12:37.222Z,31.16
2023-08-06T07:15:06.173Z,31.17
2023-08-06T07:17:34.826Z,31.21
2023-08-06T07:20:02.172Z,31.26
2023-08-06T07:22:29.548Z,31.17
2023-08-06T07:24:56.833Z,31.33
2023-08-06T07:27:24.199Z,31.42
2023-08-06T07:29:51.756Z,31.46
2023-08-06T07:32:19.124Z,31.37
2023-08-06T07:34:47.915Z,31.35
2023-08-06T07:37:15.252Z,31.27
2023-08-06T07:39:44.048Z,31.26
2023-08-06T07:42:12.097Z,31.23
2023-08-06T07:44:39.456Z,31.10
2023-08-06T07:47:08.694Z,31.07
2023-08-06T07:49:36.166Z,31.01
2023-08-06T07:52:05.474Z,31.05
2023-08-06T07:54:32.865Z,31.16
2023-08-06T07:57:00.108Z,31.17
2023-08-06T07:59:27.412Z,31.23
2023-08-06T08:01:55.103Z,31.28
2023-08-06T08:04:23.165Z,31.34
2023-08-06T08:06:50.799Z,31.32
2023-08-06T08:09:20.026Z,31.38
2023-08-06T08:11:48.402Z,31.47
2023-08-06T08:14:15.649Z,31.52
2023-08-06T08:16:43.061Z,31.44
2023-08-06T08:19:10.327Z,31.36
2023-08-06T08:21:37.632Z,31.45
2023-08-06T08:24:05.644Z,31.49
2023-08-06T08:26:34.274Z,31.47
2023-08-06T08:29:01.485Z,31.47
2023-08-06T08:31:29.843Z,31.40
2023-08-06T08:33:58.635Z,31.31
2023-08-06T08:36:27.400Z,31.32
2023-08-06T08:38:55.024Z,31.45
2023-08-06T08:41:22.711Z,31.54
2023-08-06T08:43:54.953Z,31.52
2023-08-06T08:46:22.654Z,31.55
2023-08-06T08:48:50.197Z,31.61
2023-08-06T08:51:18.661Z,31.54
2023-08-06T08:53:48.499Z,31.50
2023-08-06T08:56:15.867Z,31.57
2023-08-06T08:58:43.247Z,31.70
2023-08-06T09:01:12.517Z,31.83
2023-08-06T09:03:40.586Z,31.83
2023-08-06T09:06:08.578Z,31.87
2023-08-06T09:08:40.409Z,31.89
2023-08-06T09:11:12.134Z,31.88
2023-08-06T09:13:40.255Z,31.96
2023-08-06T09:16:07.624Z,31.95
2023-08-06T09:18:40.583Z,31.85
2023-08-06T09:21:16.268Z,31.47
2023-08-06T09:23:43.594Z,31.51
2023-08-06T09:26:16.132Z,31.63
2023-08-06T09:28:44.939Z,31.77
2023-08-06T09:31:12.368Z,31.79
2023-08-06T09:33:41.100Z,31.86
2023-08-06T09:36:10.204Z,31.80
2023-08-06T09:38:41.182Z,31.82
2023-08-06T09:41:08.913Z,31.93
2023-08-06T09:43:43.270Z,31.99
2023-08-06T09:46:14.595Z,32.05
2023-08-06T09:48:46.493Z,32.02
2023-08-06T09:51:15.050Z,31.85
2023-08-06T09:53:43.421Z,31.80
2023-08-06T09:56:12.014Z,31.77
2023-08-06T09:58:40.778Z,31.76
2023-08-06T10:01:09.286Z,31.78
2023-08-06T10:03:38.159Z,31.93
2023-08-06T10:06:09.758Z,31.93
2023-08-06T10:08:37.142Z,32.07
2023-08-06T10:11:06.551Z,32.18
2023-08-06T10:13:35.421Z,32.16
2023-08-06T10:16:06.575Z,31.98
2023-08-06T10:18:36.928Z,32.03
2023-08-06T10:21:04.283Z,32.11
2023-08-06T10:23:39.599Z,32.30
2023-08-06T10:26:07.310Z,32.41
2023-08-06T10:28:39.792Z,32.42
2023-08-06T10:31:07.586Z,32.38
2023-08-06T10:33:45.566Z,32.31
2023-08-06T10:36:13.727Z,32.44
2023-08-06T10:38:49.530Z,32.58
2023-08-06T10:41:20.297Z,32.45
2023-08-06T10:43:48.865Z,32.38
2023-08-06T10:46:24.478Z,32.39
2023-08-06T10:48:52.503Z,32.33
2023-08-06T10:51:19.723Z,32.20
2023-08-06T10:53:50.824Z,32.20
2023-08-06T10:56:19.118Z,32.30
2023-08-06T10:58:47.695Z,32.28
2023-08-06T11:01:16.256Z,32.26
2023-08-06T11:03:44.584Z,32.36
2023-08-06T11:06:12.058Z,32.43
2023-08-06T11:08:48.002Z,32.36
2023-08-06T11:11:17.986Z,32.29
2023-08-06T11:13:47.678Z,32.18
2023-08-06T11:16:15.894Z,32.26
2023-08-06T11:18:43.605Z,32.31
2023-08-06T11:21:12.910Z,32.18
2023-08-06T11:23:41.566Z,31.99
2023-08-06T11:26:09.070Z,31.70
2023-08-06T11:28:37.862Z,31.53
2023-08-06T11:31:05.344Z,31.54
2023-08-06T11:33:32.807Z,31.71
2023-08-06T11:36:01.062Z,31.82
2023-08-06T11:38:29.977Z,31.99
2023-08-06T11:40:58.022Z,32.07
2023-08-06T11:43:25.468Z,32.02
2023-08-06T11:45:57.275Z,32.14
2023-08-06T11:48:24.829Z,32.33
2023-08-06T11:50:55.646Z,32.50
2023-08-06T11:53:22.918Z,32.65
2023-08-06T11:55:50.598Z,32.74
2023-08-06T11:58:18.602Z,32.80
2023-08-06T12:00:46.370Z,32.91
2023-08-06T12:03:16.448Z,33.06
2023-08-06T12:05:48.118Z,33.16
2023-08-06T12:08:15.511Z,33.01
2023-08-06T12:10:42.844Z,33.13
2023-08-06T12:13:10.561Z,33.08
2023-08-06T12:15:37.924Z,33.02
2023-08-06T12:18:05.220Z,33.09
2023-08-06T12:20:33.882Z,33.34
2023-08-06T12:23:01.458Z,33.46
2023-08-06T12:25:29.973Z,33.63
2023-08-06T12:27:57.591Z,33.76
2023-08-06T12:30:24.959Z,33.79
2023-08-06T12:32:55.571Z,33.61
2023-08-06T12:35:23.359Z,33.63
2023-08-06T12:37:55.527Z,33.72
2023-08-06T12:40:35.751Z,33.81
2023-08-06T12:43:04.527Z,34.02
2023-08-06T12:45:31.918Z,34.05
2023-08-06T12:47:59.562Z,33.77
2023-08-06T12:50:27.180Z,33.57
2023-08-06T12:52:55.888Z,33.90
2023-08-06T12:55:23.471Z,33.86
2023-08-06T12:57:58.378Z,33.93
2023-08-06T13:00:27.187Z,34.01
2023-08-06T13:02:54.784Z,34.05
2023-08-06T13:05:22.410Z,34.19
2023-08-06T13:07:49.845Z,34.23
2023-08-06T13:10:21.073Z,34.20
2023-08-06T13:12:48.397Z,34.17
2023-08-06T13:15:18.131Z,34.11
2023-08-06T13:17:45.522Z,33.63
2023-08-06T13:20:12.951Z,32.92
2023-08-06T13:22:40.131Z,32.41
2023-08-06T13:25:08.037Z,32.00
2023-08-06T13:27:36.696Z,32.04
2023-08-06T13:30:04.665Z,32.56
2023-08-06T13:32:33.859Z,33.01
2023-08-06T13:35:01.240Z,33.06
2023-08-06T13:37:30.783Z,32.89
2023-08-06T13:39:58.139Z,32.65
2023-08-06T13:42:25.633Z,32.79
2023-08-06T13:44:54.334Z,33.07
2023-08-06T13:47:21.749Z,33.34
2023-08-06T13:50:08.920Z,33.86
2023-08-06T13:52:37.188Z,33.98
2023-08-06T13:55:08.194Z,34.12
2023-08-06T13:57:36.168Z,34.03
2023-08-06T14:00:06.900Z,33.87
2023-08-06T14:02:40.580Z,33.81
2023-08-06T14:05:08.921Z,33.82
2023-08-06T14:07:36.365Z,33.64
2023-08-06T14:10:04.127Z,33.26
2023-08-06T14:12:32.305Z,33.44
2023-08-06T14:15:00.313Z,33.50
2023-08-06T14:17:28.947Z,33.46
2023-08-06T14:19:56.445Z,33.58
2023-08-06T14:22:23.777Z,33.37
2023-08-06T14:24:51.222Z,33.21
2023-08-06T14:27:18.720Z,33.17
2023-08-06T14:29:46.003Z,33.20
2023-08-06T14:32:13.300Z,33.11
2023-08-06T14:34:41.971Z,33.09
2023-08-06T14:37:09.478Z,33.20
2023-08-06T14:39:37.233Z,33.12
2023-08-06T14:42:05.602Z,33.33
2023-08-06T14:44:32.957Z,33.25
2023-08-06T14:47:00.430Z,33.17
2023-08-06T14:49:27.752Z,33.12
2023-08-06T14:52:00.480Z,33.13
2023-08-06T14:54:27.790Z,33.17
2023-08-06T14:56:55.375Z,33.31
2023-08-06T14:59:22.806Z,33.33
2023-08-06T15:01:50.501Z,33.24
2023-08-06T15:04:18.219Z,33.11
2023-08-06T15:06:45.563Z,33.12
2023-08-06T15:09:14.210Z,32.85
2023-08-06T15:11:41.818Z,32.47
2023-08-06T15:14:09.140Z,32.37
2023-08-06T15:16:36.720Z,32.30
2023-08-06T15:19:03.990Z,32.31
2023-08-06T15:21:31.935Z,32.21
2023-08-06T15:23:59.278Z,32.24
2023-08-06T15:26:29.138Z,32.16
2023-08-06T15:28:58.243Z,32.08
2023-08-06T15:31:36.296Z,32.02
2023-08-06T15:34:04.856Z,31.88
2023-08-06T15:36:32.117Z,31.79
2023-08-06T15:38:59.369Z,31.64
2023-08-06T15:41:28.396Z,31.38
2023-08-06T15:43:55.970Z,31.15
2023-08-06T15:46:23.276Z,30.95
2023-08-06T15:48:50.514Z,30.77
2023-08-06T15:51:17.887Z,30.63
2023-08-06T15:53:45.150Z,30.53
2023-08-06T15:56:13.198Z,30.43
2023-08-06T15:58:41.969Z,30.33
2023-08-06T16:01:09.420Z,30.21
2023-08-06T16:03:36.826Z,30.11
2023-08-06T16:06:07.699Z,30.06
2023-08-06T16:08:36.166Z,30.01
2023-08-06T16:11:03.795Z,29.94
2023-08-06T16:13:30.964Z,29.83
2023-08-06T16:15:59.611Z,29.80
2023-08-06T16:18:26.843Z,29.75
2023-08-06T16:20:54.881Z,29.70
2023-08-06T16:23:23.969Z,29.60
2023-08-06T16:25:51.450Z,29.54
2023-08-06T16:28:19.122Z,29.50
2023-08-06T16:30:47.197Z,29.44
2023-08-06T16:33:16.076Z,29.40
2023-08-06T16:35:44.157Z,29.28
2023-08-06T16:38:12.348Z,29.22
2023-08-06T16:40:39.598Z,29.16
2023-08-06T16:43:07.018Z,29.17
2023-08-06T16:45:39.019Z,29.09
2023-08-06T16:48:06.676Z,29.05
2023-08-06T16:50:35.938Z,29.04
2023-08-06T16:53:04.141Z,28.97
2023-08-06T16:55:33.165Z,28.97
2023-08-06T16:58:00.486Z,28.89
2023-08-06T17:00:29.029Z,28.81
2023-08-06T17:02:56.339Z,28.75
2023-08-06T17:05:24.287Z,28.68
2023-08-06T17:07:53.577Z,28.59
2023-08-06T17:10:21.195Z,28.57
2023-08-06T17:12:49.742Z,28.52
2023-08-06T17:15:19.289Z,28.47
2023-08-06T17:17:47.127Z,28.41
2023-08-06T17:20:14.647Z,28.33
2023-08-06T17:22:41.992Z,28.27
2023-08-06T17:25:10.956Z,28.22
2023-08-06T17:27:38.392Z,28.16
2023-08-06T17:30:06.787Z,28.11
2023-08-06T17:32:34.672Z,28.09
2023-08-06T17:35:02.253Z,28.05
2023-08-06T17:37:32.599Z,28.00
2023-08-06T17:40:00.005Z,27.93
2023-08-06T17:42:28.664Z,27.90
2023-08-06T17:44:56.212Z,27.85
2023-08-06T17:47:35.807Z,27.79
2023-08-06T17:50:05.686Z,27.74
2023-08-06T17:52:33.028Z,27.69
2023-08-06T17:55:00.192Z,27.61
2023-08-06T17:57:28.896Z,27.57
2023-08-06T17:59:56.218Z,27.51
2023-08-06T18:02:23.692Z,27.48
2023-08-06T18:04:51.078Z,27.46
2023-08-06T18:07:18.490Z,27.38
2023-08-06T18:09:45.832Z,27.32
2023-08-06T18:12:13.070Z,27.20
2023-08-06T18:14:42.313Z,27.12
2023-08-06T18:17:09.544Z,27.07
2023-08-06T18:19:36.964Z,27.07
2023-08-06T18:22:04.881Z,27.03
2023-08-06T18:24:32.410Z,26.97
2023-08-06T18:26:59.892Z,26.92
2023-08-06T18:29:27.325Z,26.83
2023-08-06T18:31:56.042Z,26.80
2023-08-06T18:34:23.338Z,26.78
2023-08-06T18:36:50.602Z,26.73
2023-08-06T18:39:17.853Z,26.69
2023-08-06T18:41:46.485Z,26.64
2023-08-06T18:44:13.751Z,26.59
2023-08-06T18:46:40.994Z,26.55
2023-08-06T18:49:09.802Z,26.50
2023-08-06T18:51:37.916Z,26.45
2023-08-06T18:54:05.182Z,26.43
2023-08-06T18:56:32.500Z,26.40
2023-08-06T18:58:59.789Z,26.37
2023-08-06T19:01:27.432Z,26.33
2023-08-06T19:03:54.917Z,26.29
2023-08-06T19:06:25.311Z,26.25
2023-08-06T19:08:52.589Z,26.20
2023-08-06T19:11:19.853Z,26.17
2023-08-06T19:13:47.112Z,26.14
2023-08-06T19:16:14.808Z,26.09
2023-08-06T19:18:42.394Z,26.09
2023-08-06T19:21:09.745Z,26.05
2023-08-06T19:23:38.464Z,25.99
2023-08-06T19:26:05.740Z,25.92
2023-08-06T19:28:33.357Z,25.83
2023-08-06T19:31:00.801Z,25.76
2023-08-06T19:33:28.205Z,25.72
2023-08-06T19:35:55.780Z,25.66
2023-08-06T19:38:24.691Z,25.62
2023-08-06T19:41:05.039Z,25.58
2023-08-06T19:43:32.587Z,25.55
2023-08-06T19:46:00.400Z,25.51
2023-08-06T19:48:27.683Z,25.48
2023-08-06T19:51:01.622Z,25.44
2023-08-06T19:53:31.325Z,25.40
2023-08-06T19:56:03.502Z,25.35
2023-08-06T19:58:33.214Z,25.34
2023-08-06T20:01:00.877Z,25.34
2023-08-06T20:03:28.413Z,25.31
2023-08-06T20:05:56.048Z,25.27
2023-08-06T20:08:23.782Z,25.24
2023-08-06T20:10:55.615Z,25.20
2023-08-06T20:13:24.777Z,25.17
2023-08-06T20:15:52.231Z,25.14
2023-08-06T20:18:19.843Z,25.12
2023-08-06T20:20:47.068Z,25.12
2023-08-06T20:23:14.334Z,25.12
2023-08-06T20:25:42.184Z,25.09
2023-08-06T20:28:09.635Z,25.03
2023-08-06T20:30:42.430Z,25.05
2023-08-06T20:33:10.063Z,25.02
2023-08-06T20:35:39.354Z,24.97
2023-08-06T20:38:06.674Z,24.98
2023-08-06T20:40:34.156Z,24.92
2023-08-06T20:43:01.651Z,24.90
2023-08-06T20:45:28.916Z,24.87
2023-08-06T20:47:57.720Z,24.84
2023-08-06T20:50:25.731Z,24.81
2023-08-06T20:52:53.068Z,24.78
2023-08-06T20:55:25.310Z,24.77
2023-08-06T20:57:52.578Z,24.71
2023-08-06T21:00:20.803Z,24.62
2023-08-06T21:02:48.172Z,24.62
2023-08-06T21:05:17.085Z,24.58
2023-08-06T21:07:44.721Z,24.55
2023-08-06T21:10:12.047Z,24.50
2023-08-06T21:12:39.373Z,24.45
2023-08-06T21:15:07.874Z,24.41
2023-08-06T21:17:35.415Z,24.39
2023-08-06T21:20:02.797Z,24.35
2023-08-06T21:22:33.622Z,24.30
2023-08-06T21:25:01.060Z,24.27
2023-08-06T21:27:29.636Z,24.23
2023-08-06T21:29:56.834Z,24.20
2023-08-06T21:32:25.570Z,24.18
2023-08-06T21:34:52.889Z,24.16
2023-08-06T21:37:20.351Z,24.16
2023-08-06T21:39:49.138Z,24.14
2023-08-06T21:42:16.502Z,24.08
2023-08-06T21:44:43.915Z,24.03
2023-08-06T21:47:12.467Z,23.97
2023-08-06T21:49:39.798Z,23.92
2023-08-06T21:52:07.574Z,23.87
2023-08-06T21:54:34.887Z,23.81
2023-08-06T21:57:03.928Z,23.77
2023-08-06T21:59:31.280Z,23.68
2023-08-06T22:01:58.727Z,23.72
2023-08-06T22:04:26.272Z,23.67
2023-08-06T22:06:53.503Z,23.63
2023-08-06T22:09:20.924Z,23.60
2023-08-06T22:11:48.175Z,23.57
2023-08-06T22:14:16.796Z,23.57
2023-08-06T22:16:43.941Z,23.54
2023-08-06T22:19:11.403Z,23.52
2023-08-06T22:21:38.586Z,23.52
2023-08-06T22:24:06.564Z,23.47
2023-08-06T22:26:33.743Z,23.44
2023-08-06T22:29:02.145Z,23.37
2023-08-06T22:31:30.958Z,23.37
2023-08-06T22:33:58.457Z,23.36
2023-08-06T22:36:26.581Z,23.32
2023-08-06T22:38:53.751Z,23.29
2023-08-06T22:41:24.042Z,23.27
2023-08-06T22:43:51.469Z,23.22
2023-08-06T22:46:18.881Z,23.17
2023-08-06T22:48:47.524Z,23.17
2023-08-06T22:51:15.794Z,23.12
2023-08-06T22:53:43.177Z,23.07
2023-08-06T22:56:10.605Z,23.07
2023-08-06T22:58:39.006Z,23.06
2023-08-06T23:01:06.645Z,22.99
2023-08-06T23:03:35.677Z,23.01
2023-08-06T23:06:05.028Z,22.97
2023-08-06T23:08:32.444Z,22.91
2023-08-06T23:11:02.201Z,22.87
2023-08-06T23:13:29.661Z,22.86
2023-08-06T23:15:56.962Z,22.83
2023-08-06T23:18:24.280Z,22.75
2023-08-06T23:20:51.742Z,22.75
2023-08-06T23:23:20.488Z,22.76
2023-08-06T23:25:47.714Z,22.74
2023-08-06T23:28:15.001Z,22.75
2023-08-06T23:30:45.543Z,22.75
2023-08-06T23:33:12.945Z,22.78
2023-08-06T23:35:40.300Z,22.78
2023-08-06T23:38:07.584Z,22.74
2023-08-06T23:40:36.224Z,22.71
2023-08-06T23:43:03.419Z,22.69
2023-08-06T23:45:30.850Z,22.67
2023-08-06T23:47:58.139Z,22.65
2023-08-06T23:50:26.221Z,22.62
2023-08-06T23:52:53.458Z,22.61
2023-08-06T23:55:20.820Z,22.59
2023-08-06T23:57:49.649Z,22.57
